sensor_id;sensor_type;location;lat;lon;timestamp;temperature;humidity
16064;DHT22;8136;53.172;8.256;2023-06-22T00:02:16;19.10;99.90
16064;DHT22;8136;53.172;8.256;2023-06-22T00:04:43;19.10;99.90
16064;DHT22;8136;53.172;8.256;2023-06-22T00:07:10;19.10;99.90
16064;DHT22;8136;53.172;8.256;2023-06-22T00:09:37;19.10;99.90
16064;DHT22;8136;53.172;8.256;2023-06-22T00:12:06;19.10;99.90
16064;DHT22;8136;53.172;8.256;2023-06-22T00:14:33;19.00;99.90
16064;DHT22;8136;53.172;8.256;2023-06-22T00:17:00;19.00;99.90
16064;DHT22;8136;53.172;8.256;2023-06-22T00:19:26;18.90;99.90
16064;DHT22;8136;53.172;8.256;2023-06-22T00:21:53;18.90;99.90
16064;DHT22;8136;53.172;8.256;2023-06-22T00:24:20;18.90;99.90
16064;DHT22;8136;53.172;8.256;2023-06-22T00:26:48;18.90;99.90
16064;DHT22;8136;53.172;8.256;2023-06-22T00:29:16;18.90;99.90
16064;DHT22;8136;53.172;8.256;2023-06-22T00:31:44;18.90;99.90
16064;DHT22;8136;53.172;8.256;2023-06-22T00:34:11;18.90;99.90
16064;DHT22;8136;53.172;8.256;2023-06-22T00:36:37;18.90;99.90
16064;DHT22;8136;53.172;8.256;2023-06-22T00:39:06;18.90;99.90
16064;DHT22;8136;53.172;8.256;2023-06-22T00:41:34;18.80;99.90
16064;DHT22;8136;53.172;8.256;2023-06-22T00:44:00;18.90;99.90
16064;DHT22;8136;53.172;8.256;2023-06-22T00:46:29;18.90;99.90
16064;DHT22;8136;53.172;8.256;2023-06-22T00:48:56;18.90;99.90
16064;DHT22;8136;53.172;8.256;2023-06-22T00:51:23;18.90;99.90
16064;DHT22;8136;53.172;8.256;2023-06-22T00:53:50;18.80;99.90
16064;DHT22;8136;53.172;8.256;2023-06-22T00:56:28;18.80;99.90
16064;DHT22;8136;53.172;8.256;2023-06-22T00:59:28;18.70;99.90
16064;DHT22;8136;53.172;8.256;2023-06-22T01:13:06;18.70;99.90
16064;DHT22;8136;53.172;8.256;2023-06-22T01:36:13;18.60;99.90
16064;DHT22;8136;53.172;8.256;2023-06-22T01:38:42;18.60;99.90
16064;DHT22;8136;53.172;8.256;2023-06-22T01:41:09;18.60;99.90
16064;DHT22;8136;53.172;8.256;2023-06-22T01:43:36;18.60;99.90
16064;DHT22;8136;53.172;8.256;2023-06-22T01:46:04;18.60;99.90
16064;DHT22;8136;53.172;8.256;2023-06-22T01:48:31;18.60;99.90
16064;DHT22;8136;53.172;8.256;2023-06-22T01:50:59;18.50;99.90
16064;DHT22;8136;53.172;8.256;2023-06-22T01:53:27;18.50;99.90
16064;DHT22;8136;53.172;8.256;2023-06-22T01:55:54;18.50;99.90
16064;DHT22;8136;53.172;8.256;2023-06-22T01:58:21;18.40;99.90
16064;DHT22;8136;53.172;8.256;2023-06-22T02:00:55;18.40;99.90
16064;DHT22;8136;53.172;8.256;2023-06-22T02:03:28;18.40;99.90
16064;DHT22;8136;53.172;8.256;2023-06-22T02:06:01;18.40;99.90
16064;DHT22;8136;53.172;8.256;2023-06-22T02:08:31;18.30;99.90
16064;DHT22;8136;53.172;8.256;2023-06-22T02:11:00;18.30;99.90
16064;DHT22;8136;53.172;8.256;2023-06-22T02:13:27;18.20;99.90
16064;DHT22;8136;53.172;8.256;2023-06-22T03:02:25;17.60;99.90
16064;DHT22;8136;53.172;8.256;2023-06-22T03:04:52;17.60;99.90
16064;DHT22;8136;53.172;8.256;2023-06-22T03:07:19;17.60;99.90
16064;DHT22;8136;53.172;8.256;2023-06-22T03:09:46;17.60;99.90
16064;DHT22;8136;53.172;8.256;2023-06-22T03:12:12;17.60;99.90
16064;DHT22;8136;53.172;8.256;2023-06-22T03:14:39;17.60;99.90
16064;DHT22;8136;53.172;8.256;2023-06-22T03:17:06;17.60;99.90
16064;DHT22;8136;53.172;8.256;2023-06-22T03:19:34;17.60;99.90
16064;DHT22;8136;53.172;8.256;2023-06-22T03:22:01;17.60;99.90
16064;DHT22;8136;53.172;8.256;2023-06-22T03:24:27;17.60;99.90
16064;DHT22;8136;53.172;8.256;2023-06-22T03:26:55;17.60;99.90
16064;DHT22;8136;53.172;8.256;2023-06-22T03:29:22;17.60;99.90
16064;DHT22;8136;53.172;8.256;2023-06-22T03:31:49;17.60;99.90
16064;DHT22;8136;53.172;8.256;2023-06-22T03:34:16;17.60;99.90
16064;DHT22;8136;53.172;8.256;2023-06-22T03:36:44;17.60;99.90
16064;DHT22;8136;53.172;8.256;2023-06-22T03:39:11;17.60;99.90
16064;DHT22;8136;53.172;8.256;2023-06-22T03:41:38;17.60;99.90
16064;DHT22;8136;53.172;8.256;2023-06-22T03:44:05;17.70;99.90
16064;DHT22;8136;53.172;8.256;2023-06-22T03:46:32;17.70;99.90
16064;DHT22;8136;53.172;8.256;2023-06-22T03:48:58;17.70;99.90
16064;DHT22;8136;53.172;8.256;2023-06-22T03:51:25;17.70;99.90
16064;DHT22;8136;53.172;8.256;2023-06-22T03:53:53;17.80;99.90
16064;DHT22;8136;53.172;8.256;2023-06-22T03:56:20;17.80;99.90
16064;DHT22;8136;53.172;8.256;2023-06-22T03:58:47;17.80;99.90
16064;DHT22;8136;53.172;8.256;2023-06-22T04:01:13;17.80;99.90
16064;DHT22;8136;53.172;8.256;2023-06-22T04:03:42;17.90;99.90
16064;DHT22;8136;53.172;8.256;2023-06-22T04:06:09;17.90;99.90
16064;DHT22;8136;53.172;8.256;2023-06-22T04:08:36;18.00;99.90
16064;DHT22;8136;53.172;8.256;2023-06-22T04:11:04;18.00;99.90
16064;DHT22;8136;53.172;8.256;2023-06-22T04:13:31;18.00;99.90
16064;DHT22;8136;53.172;8.256;2023-06-22T04:15:58;18.00;99.90
16064;DHT22;8136;53.172;8.256;2023-06-22T04:18:26;18.10;99.90
16064;DHT22;8136;53.172;8.256;2023-06-22T04:20:53;18.10;99.90
16064;DHT22;8136;53.172;8.256;2023-06-22T04:23:20;18.10;99.90
16064;DHT22;8136;53.172;8.256;2023-06-22T04:25:46;18.20;99.90
16064;DHT22;8136;53.172;8.256;2023-06-22T04:28:15;18.20;99.90
16064;DHT22;8136;53.172;8.256;2023-06-22T04:30:42;18.20;99.90
16064;DHT22;8136;53.172;8.256;2023-06-22T04:33:13;18.30;99.90
16064;DHT22;8136;53.172;8.256;2023-06-22T04:35:39;18.30;99.90
16064;DHT22;8136;53.172;8.256;2023-06-22T04:38:08;18.30;99.90
16064;DHT22;8136;53.172;8.256;2023-06-22T04:40:35;18.40;99.90
16064;DHT22;8136;53.172;8.256;2023-06-22T04:43:01;18.40;99.90
16064;DHT22;8136;53.172;8.256;2023-06-22T04:45:30;18.40;99.90
16064;DHT22;8136;53.172;8.256;2023-06-22T04:47:57;18.40;99.90
16064;DHT22;8136;53.172;8.256;2023-06-22T04:50:24;18.50;99.90
16064;DHT22;8136;53.172;8.256;2023-06-22T04:52:51;18.50;99.90
16064;DHT22;8136;53.172;8.256;2023-06-22T04:55:20;18.50;99.90
16064;DHT22;8136;53.172;8.256;2023-06-22T04:57:47;18.50;99.90
16064;DHT22;8136;53.172;8.256;2023-06-22T05:00:15;18.50;99.90
16064;DHT22;8136;53.172;8.256;2023-06-22T05:02:45;18.60;99.90
16064;DHT22;8136;53.172;8.256;2023-06-22T05:05:12;18.60;99.90
16064;DHT22;8136;53.172;8.256;2023-06-22T05:07:41;18.60;99.90
16064;DHT22;8136;53.172;8.256;2023-06-22T05:10:10;18.70;99.90
16064;DHT22;8136;53.172;8.256;2023-06-22T05:12:38;18.70;99.90
16064;DHT22;8136;53.172;8.256;2023-06-22T05:15:06;18.70;99.90
16064;DHT22;8136;53.172;8.256;2023-06-22T05:17:33;18.70;99.90
16064;DHT22;8136;53.172;8.256;2023-06-22T05:20:02;18.70;99.90
16064;DHT22;8136;53.172;8.256;2023-06-22T05:22:31;18.70;99.90
16064;DHT22;8136;53.172;8.256;2023-06-22T05:24:58;18.70;99.90
16064;DHT22;8136;53.172;8.256;2023-06-22T05:27:25;18.70;99.90
16064;DHT22;8136;53.172;8.256;2023-06-22T05:29:52;18.60;99.90
16064;DHT22;8136;53.172;8.256;2023-06-22T05:32:18;18.60;99.90
16064;DHT22;8136;53.172;8.256;2023-06-22T05:34:45;18.60;99.90
16064;DHT22;8136;53.172;8.256;2023-06-22T05:37:14;18.60;99.90
16064;DHT22;8136;53.172;8.256;2023-06-22T05:39:40;18.70;99.90
16064;DHT22;8136;53.172;8.256;2023-06-22T05:42:08;18.70;99.90
16064;DHT22;8136;53.172;8.256;2023-06-22T05:44:34;18.80;99.90
16064;DHT22;8136;53.172;8.256;2023-06-22T05:47:03;18.80;99.90
16064;DHT22;8136;53.172;8.256;2023-06-22T05:49:30;18.90;99.90
16064;DHT22;8136;53.172;8.256;2023-06-22T05:51:58;19.00;99.90
16064;DHT22;8136;53.172;8.256;2023-06-22T05:54:27;19.00;99.90
16064;DHT22;8136;53.172;8.256;2023-06-22T05:56:54;19.10;99.90
16064;DHT22;8136;53.172;8.256;2023-06-22T05:59:21;19.20;99.90
16064;DHT22;8136;53.172;8.256;2023-06-22T06:01:48;19.30;99.90
16064;DHT22;8136;53.172;8.256;2023-06-22T06:04:16;19.50;99.90
16064;DHT22;8136;53.172;8.256;2023-06-22T06:06:43;19.50;99.90
16064;DHT22;8136;53.172;8.256;2023-06-22T06:09:10;19.60;99.90
16064;DHT22;8136;53.172;8.256;2023-06-22T06:11:39;19.70;99.90
16064;DHT22;8136;53.172;8.256;2023-06-22T06:14:06;19.70;99.90
16064;DHT22;8136;53.172;8.256;2023-06-22T06:16:33;19.80;99.90
16064;DHT22;8136;53.172;8.256;2023-06-22T06:19:00;19.90;99.90
16064;DHT22;8136;53.172;8.256;2023-06-22T06:21:27;20.10;99.90
16064;DHT22;8136;53.172;8.256;2023-06-22T06:23:53;20.20;99.90
16064;DHT22;8136;53.172;8.256;2023-06-22T06:26:20;20.20;99.90
16064;DHT22;8136;53.172;8.256;2023-06-22T06:28:57;20.30;99.90
16064;DHT22;8136;53.172;8.256;2023-06-22T06:31:24;20.30;99.90
16064;DHT22;8136;53.172;8.256;2023-06-22T06:33:53;20.30;99.90
16064;DHT22;8136;53.172;8.256;2023-06-22T06:36:20;20.50;99.90
16064;DHT22;8136;53.172;8.256;2023-06-22T06:38:47;20.50;99.90
16064;DHT22;8136;53.172;8.256;2023-06-22T06:41:14;20.50;99.90
16064;DHT22;8136;53.172;8.256;2023-06-22T06:43:41;20.60;99.90
16064;DHT22;8136;53.172;8.256;2023-06-22T06:46:10;20.70;99.90
16064;DHT22;8136;53.172;8.256;2023-06-22T06:48:37;20.70;99.90
16064;DHT22;8136;53.172;8.256;2023-06-22T06:51:06;20.70;99.90
16064;DHT22;8136;53.172;8.256;2023-06-22T06:53:35;20.80;99.90
16064;DHT22;8136;53.172;8.256;2023-06-22T06:56:02;21.00;99.90
16064;DHT22;8136;53.172;8.256;2023-06-22T06:58:30;21.10;99.90
16064;DHT22;8136;53.172;8.256;2023-06-22T07:00:58;21.20;99.90
16064;DHT22;8136;53.172;8.256;2023-06-22T07:03:26;21.30;99.90
16064;DHT22;8136;53.172;8.256;2023-06-22T07:05:52;21.30;99.90
16064;DHT22;8136;53.172;8.256;2023-06-22T07:08:19;21.40;99.90
16064;DHT22;8136;53.172;8.256;2023-06-22T07:10:46;21.40;99.90
16064;DHT22;8136;53.172;8.256;2023-06-22T07:13:13;21.40;99.90
16064;DHT22;8136;53.172;8.256;2023-06-22T07:15:40;21.40;99.90
16064;DHT22;8136;53.172;8.256;2023-06-22T07:18:07;21.60;99.90
16064;DHT22;8136;53.172;8.256;2023-06-22T07:20:35;21.70;99.90
16064;DHT22;8136;53.172;8.256;2023-06-22T07:23:02;21.70;99.90
16064;DHT22;8136;53.172;8.256;2023-06-22T07:25:30;21.70;99.90
16064;DHT22;8136;53.172;8.256;2023-06-22T07:27:58;21.90;99.90
16064;DHT22;8136;53.172;8.256;2023-06-22T07:30:24;22.00;99.90
16064;DHT22;8136;53.172;8.256;2023-06-22T07:32:52;22.10;99.90
16064;DHT22;8136;53.172;8.256;2023-06-22T07:35:19;22.20;99.90
16064;DHT22;8136;53.172;8.256;2023-06-22T07:37:47;22.30;99.90
16064;DHT22;8136;53.172;8.256;2023-06-22T07:40:14;22.30;99.90
16064;DHT22;8136;53.172;8.256;2023-06-22T07:42:41;22.30;99.90
16064;DHT22;8136;53.172;8.256;2023-06-22T07:45:08;22.40;99.90
16064;DHT22;8136;53.172;8.256;2023-06-22T07:47:35;22.50;99.90
16064;DHT22;8136;53.172;8.256;2023-06-22T07:50:02;22.60;99.90
16064;DHT22;8136;53.172;8.256;2023-06-22T07:52:29;22.60;99.90
16064;DHT22;8136;53.172;8.256;2023-06-22T07:54:57;22.70;99.90
16064;DHT22;8136;53.172;8.256;2023-06-22T07:57:24;22.70;99.90
16064;DHT22;8136;53.172;8.256;2023-06-22T07:59:57;22.80;99.90
16064;DHT22;8136;53.172;8.256;2023-06-22T08:02:24;22.90;99.90
16064;DHT22;8136;53.172;8.256;2023-06-22T08:04:51;23.00;99.90
16064;DHT22;8136;53.172;8.256;2023-06-22T08:07:18;23.10;99.90
16064;DHT22;8136;53.172;8.256;2023-06-22T08:09:46;23.20;99.90
16064;DHT22;8136;53.172;8.256;2023-06-22T08:12:15;23.30;99.90
16064;DHT22;8136;53.172;8.256;2023-06-22T08:14:43;23.30;99.90
16064;DHT22;8136;53.172;8.256;2023-06-22T08:17:11;23.40;99.90
16064;DHT22;8136;53.172;8.256;2023-06-22T08:19:39;23.40;99.90
16064;DHT22;8136;53.172;8.256;2023-06-22T08:22:06;23.50;99.90
16064;DHT22;8136;53.172;8.256;2023-06-22T08:24:33;23.50;99.90
16064;DHT22;8136;53.172;8.256;2023-06-22T08:27:00;23.60;99.90
16064;DHT22;8136;53.172;8.256;2023-06-22T08:29:28;23.60;99.90
16064;DHT22;8136;53.172;8.256;2023-06-22T08:31:55;23.70;99.90
16064;DHT22;8136;53.172;8.256;2023-06-22T08:34:21;23.70;99.90
16064;DHT22;8136;53.172;8.256;2023-06-22T08:36:50;23.70;99.90
16064;DHT22;8136;53.172;8.256;2023-06-22T08:39:18;23.60;99.90
16064;DHT22;8136;53.172;8.256;2023-06-22T08:41:45;23.60;99.90
16064;DHT22;8136;53.172;8.256;2023-06-22T08:44:12;23.70;99.90
16064;DHT22;8136;53.172;8.256;2023-06-22T08:46:40;23.70;99.90
16064;DHT22;8136;53.172;8.256;2023-06-22T08:49:08;23.80;99.90
16064;DHT22;8136;53.172;8.256;2023-06-22T08:51:36;23.80;99.90
16064;DHT22;8136;53.172;8.256;2023-06-22T08:54:04;23.90;99.90
16064;DHT22;8136;53.172;8.256;2023-06-22T08:56:31;23.90;99.90
16064;DHT22;8136;53.172;8.256;2023-06-22T08:58:57;24.00;99.90
16064;DHT22;8136;53.172;8.256;2023-06-22T09:01:25;24.10;99.90
16064;DHT22;8136;53.172;8.256;2023-06-22T09:03:53;24.30;99.90
16064;DHT22;8136;53.172;8.256;2023-06-22T09:06:23;24.40;99.90
16064;DHT22;8136;53.172;8.256;2023-06-22T09:08:50;24.40;99.90
16064;DHT22;8136;53.172;8.256;2023-06-22T09:11:17;24.50;99.90
16064;DHT22;8136;53.172;8.256;2023-06-22T09:13:44;24.60;99.90
16064;DHT22;8136;53.172;8.256;2023-06-22T09:16:11;24.60;99.90
16064;DHT22;8136;53.172;8.256;2023-06-22T09:18:39;24.60;99.90
16064;DHT22;8136;53.172;8.256;2023-06-22T09:21:23;24.70;99.90
16064;DHT22;8136;53.172;8.256;2023-06-22T09:23:50;24.70;99.90
16064;DHT22;8136;53.172;8.256;2023-06-22T09:26:17;24.80;99.90
16064;DHT22;8136;53.172;8.256;2023-06-22T09:28:44;24.90;99.90
16064;DHT22;8136;53.172;8.256;2023-06-22T09:38:08;25.10;99.90
16064;DHT22;8136;53.172;8.256;2023-06-22T09:53:45;25.70;99.90
16064;DHT22;8136;53.172;8.256;2023-06-22T09:56:17;25.80;99.90
16064;DHT22;8136;53.172;8.256;2023-06-22T09:58:45;25.80;99.90
16064;DHT22;8136;53.172;8.256;2023-06-22T10:01:13;25.80;99.90
16064;DHT22;8136;53.172;8.256;2023-06-22T10:03:40;25.90;99.90
16064;DHT22;8136;53.172;8.256;2023-06-22T10:06:10;26.00;99.90
16064;DHT22;8136;53.172;8.256;2023-06-22T10:08:37;26.10;99.90
16064;DHT22;8136;53.172;8.256;2023-06-22T10:11:06;26.20;99.90
16064;DHT22;8136;53.172;8.256;2023-06-22T10:13:33;26.30;99.90
16064;DHT22;8136;53.172;8.256;2023-06-22T10:16:01;26.30;99.90
16064;DHT22;8136;53.172;8.256;2023-06-22T10:18:35;26.30;99.90
16064;DHT22;8136;53.172;8.256;2023-06-22T10:27:30;26.60;99.90
16064;DHT22;8136;53.172;8.256;2023-06-22T10:29:57;26.70;99.90
16064;DHT22;8136;53.172;8.256;2023-06-22T10:32:24;26.80;99.90
16064;DHT22;8136;53.172;8.256;2023-06-22T10:34:51;27.00;99.90
16064;DHT22;8136;53.172;8.256;2023-06-22T10:37:17;27.00;99.90
16064;DHT22;8136;53.172;8.256;2023-06-22T10:40:01;27.00;99.90
16064;DHT22;8136;53.172;8.256;2023-06-22T10:46:04;27.10;99.90
16064;DHT22;8136;53.172;8.256;2023-06-22T10:48:30;27.30;99.90
16064;DHT22;8136;53.172;8.256;2023-06-22T10:50:57;27.40;99.90
16064;DHT22;8136;53.172;8.256;2023-06-22T10:53:34;27.50;99.90
16064;DHT22;8136;53.172;8.256;2023-06-22T17:49:29;23.20;99.90
16064;DHT22;8136;53.172;8.256;2023-06-22T17:51:57;23.20;99.90
16064;DHT22;8136;53.172;8.256;2023-06-22T17:54:29;23.20;99.90
16064;DHT22;8136;53.172;8.256;2023-06-22T17:56:56;23.20;99.90
16064;DHT22;8136;53.172;8.256;2023-06-22T17:59:23;23.20;99.90
16064;DHT22;8136;53.172;8.256;2023-06-22T18:01:50;23.20;99.90
16064;DHT22;8136;53.172;8.256;2023-06-22T18:19:56;23.20;99.90
16064;DHT22;8136;53.172;8.256;2023-06-22T18:22:25;23.20;99.90
16064;DHT22;8136;53.172;8.256;2023-06-22T18:24:52;23.20;99.90
16064;DHT22;8136;53.172;8.256;2023-06-22T18:27:20;23.10;99.90
16064;DHT22;8136;53.172;8.256;2023-06-22T18:29:50;23.10;99.90
16064;DHT22;8136;53.172;8.256;2023-06-22T18:32:17;23.00;99.90
16064;DHT22;8136;53.172;8.256;2023-06-22T18:34:44;23.10;99.90
16064;DHT22;8136;53.172;8.256;2023-06-22T18:37:14;23.00;99.90
16064;DHT22;8136;53.172;8.256;2023-06-22T18:39:43;23.00;99.90
16064;DHT22;8136;53.172;8.256;2023-06-22T18:42:11;23.00;99.90
16064;DHT22;8136;53.172;8.256;2023-06-22T18:44:41;23.00;99.90
16064;DHT22;8136;53.172;8.256;2023-06-22T18:47:09;23.00;99.90
16064;DHT22;8136;53.172;8.256;2023-06-22T18:49:46;23.00;99.90
16064;DHT22;8136;53.172;8.256;2023-06-22T18:52:24;22.90;99.90
16064;DHT22;8136;53.172;8.256;2023-06-22T18:54:52;22.90;99.90
16064;DHT22;8136;53.172;8.256;2023-06-22T18:57:22;22.80;99.90
16064;DHT22;8136;53.172;8.256;2023-06-22T18:59:51;22.80;99.90
16064;DHT22;8136;53.172;8.256;2023-06-22T19:02:39;22.60;99.90
16064;DHT22;8136;53.172;8.256;2023-06-22T19:05:16;22.70;99.90
16064;DHT22;8136;53.172;8.256;2023-06-22T19:07:59;22.50;99.90
16064;DHT22;8136;53.172;8.256;2023-06-22T19:10:29;22.20;99.90
16064;DHT22;8136;53.172;8.256;2023-06-22T19:12:58;22.00;99.90
16064;DHT22;8136;53.172;8.256;2023-06-22T19:15:43;21.70;99.90
16064;DHT22;8136;53.172;8.256;2023-06-22T19:18:14;21.60;99.90
16064;DHT22;8136;53.172;8.256;2023-06-22T19:20:43;21.50;99.90
16064;DHT22;8136;53.172;8.256;2023-06-22T19:23:33;21.50;99.90
16064;DHT22;8136;53.172;8.256;2023-06-22T19:26:05;21.40;99.90
16064;DHT22;8136;53.172;8.256;2023-06-22T19:28:58;21.30;99.90
16064;DHT22;8136;53.172;8.256;2023-06-22T19:31:30;21.30;99.90
16064;DHT22;8136;53.172;8.256;2023-06-22T19:34:01;21.30;99.90
16064;DHT22;8136;53.172;8.256;2023-06-22T19:36:39;21.30;99.90
16064;DHT22;8136;53.172;8.256;2023-06-22T19:39:31;21.30;99.90
16064;DHT22;8136;53.172;8.256;2023-06-22T19:42:02;21.30;99.90
16064;DHT22;8136;53.172;8.256;2023-06-22T19:44:29;21.30;99.90
16064;DHT22;8136;53.172;8.256;2023-06-22T19:46:59;21.40;99.90
16064;DHT22;8136;53.172;8.256;2023-06-22T19:49:26;21.40;99.90
16064;DHT22;8136;53.172;8.256;2023-06-22T19:51:53;21.40;99.90
16064;DHT22;8136;53.172;8.256;2023-06-22T19:54:20;21.50;99.90
16064;DHT22;8136;53.172;8.256;2023-06-22T19:56:50;21.50;99.90
16064;DHT22;8136;53.172;8.256;2023-06-22T19:59:22;21.40;99.90
16064;DHT22;8136;53.172;8.256;2023-06-22T20:01:51;21.40;99.90
16064;DHT22;8136;53.172;8.256;2023-06-22T20:04:23;21.40;99.90
16064;DHT22;8136;53.172;8.256;2023-06-22T20:07:02;21.40;99.90
16064;DHT22;8136;53.172;8.256;2023-06-22T20:09:29;21.30;99.90
16064;DHT22;8136;53.172;8.256;2023-06-22T20:11:58;21.40;99.90
16064;DHT22;8136;53.172;8.256;2023-06-22T20:14:29;21.30;99.90
16064;DHT22;8136;53.172;8.256;2023-06-22T20:16:57;21.30;99.90
16064;DHT22;8136;53.172;8.256;2023-06-22T20:19:34;21.30;99.90
16064;DHT22;8136;53.172;8.256;2023-06-22T20:22:04;21.20;99.90
16064;DHT22;8136;53.172;8.256;2023-06-22T20:24:31;21.20;99.90
16064;DHT22;8136;53.172;8.256;2023-06-22T20:27:01;21.20;99.90
16064;DHT22;8136;53.172;8.256;2023-06-22T20:29:29;21.20;99.90
16064;DHT22;8136;53.172;8.256;2023-06-22T20:32:09;21.20;99.90
16064;DHT22;8136;53.172;8.256;2023-06-22T20:34:38;21.20;99.90
16064;DHT22;8136;53.172;8.256;2023-06-22T20:37:09;21.10;99.90
16064;DHT22;8136;53.172;8.256;2023-06-22T20:39:51;21.10;99.90
16064;DHT22;8136;53.172;8.256;2023-06-22T20:42:27;21.10;99.90
16064;DHT22;8136;53.172;8.256;2023-06-22T20:45:12;21.00;99.90
16064;DHT22;8136;53.172;8.256;2023-06-22T20:47:48;20.90;99.90
16064;DHT22;8136;53.172;8.256;2023-06-22T20:50:47;20.90;99.90
16064;DHT22;8136;53.172;8.256;2023-06-22T20:53:24;20.80;99.90
16064;DHT22;8136;53.172;8.256;2023-06-22T20:56:06;20.80;99.90
16064;DHT22;8136;53.172;8.256;2023-06-22T21:09:14;20.70;99.90
16064;DHT22;8136;53.172;8.256;2023-06-22T21:12:18;20.70;99.90
16064;DHT22;8136;53.172;8.256;2023-06-22T21:22:32;20.40;99.90
16064;DHT22;8136;53.172;8.256;2023-06-22T21:31:42;20.20;99.90
16064;DHT22;8136;53.172;8.256;2023-06-22T21:35:13;20.00;99.90
16064;DHT22;8136;53.172;8.256;2023-06-22T22:03:37;19.70;99.90
16064;DHT22;8136;53.172;8.256;2023-06-22T22:08:26;19.70;99.90
16064;DHT22;8136;53.172;8.256;2023-06-22T22:12:06;19.60;99.90
